Time;durP1;ratioP1;P1;durP2;ratioP2;P2;SDS_P1;SDS_P2;PMS_P1;PMS_P2;Temp;Humidity;BMP_temperature;BMP_pressure;BME280_temperature;BME280_humidity;BME280_pressure;Samples;Min_cycle;Max_cycle;Signal;HPM_P1;HPM_P2
2023/05/16 00:02:17;;;;;;;24.50;12.77;;;;;;;8.96;100.00;101770.88;5031574;28;20416;-46
2023/05/16 00:04:43;;;;;;;23.23;13.18;;;;;;;8.98;100.00;101769.47;5034504;28;20030;-45
2023/05/16 00:07:08;;;;;;;25.73;12.63;;;;;;;8.95;100.00;101766.44;5034345;28;20062;-46
2023/05/16 00:09:33;;;;;;;29.25;12.48;;;;;;;8.98;100.00;101766.72;5030768;28;20064;-44
2023/05/16 00:11:59;;;;;;;23.52;12.88;;;;;;;8.98;100.00;101779.69;5034354;28;20112;-50
2023/05/16 00:14:25;;;;;;;22.65;12.68;;;;;;;8.85;100.00;101770.84;5034326;28;20477;-44
2023/05/16 00:16:52;;;;;;;26.20;12.60;;;;;;;8.87;100.00;101768.63;5034342;28;20029;-43
2023/05/16 00:19:17;;;;;;;26.73;12.55;;;;;;;8.75;100.00;101781.84;5034357;28;20053;-44
2023/05/16 00:21:43;;;;;;;25.73;12.00;;;;;;;8.73;100.00;101775.75;5034307;28;20060;-45
2023/05/16 00:24:09;;;;;;;24.92;12.38;;;;;;;8.65;100.00;101784.56;5034198;28;20033;-45
2023/05/16 00:26:34;;;;;;;24.83;12.18;;;;;;;8.61;100.00;101776.00;5034011;28;20500;-44
2023/05/16 00:28:59;;;;;;;24.40;12.70;;;;;;;8.64;100.00;101771.88;5037903;28;20083;-44
2023/05/16 00:31:25;;;;;;;22.05;12.07;;;;;;;8.62;100.00;101777.66;5053730;28;20120;-45
2023/05/16 00:33:50;;;;;;;22.42;12.07;;;;;;;8.60;100.00;101779.03;5053714;28;20056;-44
2023/05/16 00:36:15;;;;;;;22.05;12.07;;;;;;;8.54;100.00;101779.00;5052115;28;20039;-45
2023/05/16 00:38:41;;;;;;;24.42;12.93;;;;;;;8.51;100.00;101787.81;5053234;28;20124;-44
2023/05/16 00:41:06;;;;;;;24.38;12.40;;;;;;;8.51;100.00;101781.47;5053079;28;20031;-48
2023/05/16 00:43:31;;;;;;;25.88;12.40;;;;;;;8.42;100.00;101783.88;5053296;28;20108;-44
2023/05/16 00:45:57;;;;;;;23.55;11.50;;;;;;;8.37;100.00;101784.66;5053475;28;20429;-47
2023/05/16 00:48:22;;;;;;;25.00;11.80;;;;;;;8.31;100.00;101783.00;5053422;28;20107;-48
2023/05/16 00:50:48;;;;;;;22.65;11.60;;;;;;;8.28;100.00;101776.09;5051056;28;20483;-44
2023/05/16 00:53:14;;;;;;;23.67;12.18;;;;;;;8.30;100.00;101781.34;5053215;28;20121;-44
2023/05/16 00:55:39;;;;;;;24.30;12.13;;;;;;;8.26;100.00;101786.56;5051913;28;20115;-46
2023/05/16 00:58:05;;;;;;;25.00;11.32;;;;;;;8.19;100.00;101785.97;5053221;28;20301;-47
2023/05/16 01:00:31;;;;;;;24.27;12.90;;;;;;;8.16;100.00;101785.69;5053301;28;20033;-48
2023/05/16 01:02:56;;;;;;;22.92;11.70;;;;;;;8.16;100.00;101778.22;5053183;28;20460;-49
2023/05/16 01:05:22;;;;;;;23.92;12.07;;;;;;;8.09;100.00;101791.41;5053127;28;20040;-46
2023/05/16 01:07:48;;;;;;;23.00;11.35;;;;;;;8.07;100.00;101785.34;5052216;28;20029;-47
2023/05/16 01:10:14;;;;;;;24.38;11.38;;;;;;;7.99;100.00;101807.88;5052514;28;20078;-46
2023/05/16 01:13:16;;;;;;;24.15;12.73;;;;;;;7.90;100.00;101799.28;5045521;28;20033;-46
2023/05/16 01:16:03;;;;;;;22.58;11.38;;;;;;;7.86;100.00;101790.72;5052944;28;20033;-44
2023/05/16 01:18:51;;;;;;;24.23;11.98;;;;;;;7.87;100.00;101803.38;5052825;28;20031;-46
2023/05/16 01:21:37;;;;;;;24.52;11.88;;;;;;;7.84;100.00;101800.34;5051212;28;20052;-47
2023/05/16 01:24:12;;;;;;;23.38;12.80;;;;;;;7.73;100.00;101804.94;5052945;28;20029;-45
2023/05/16 01:26:40;;;;;;;23.63;12.10;;;;;;;7.70;100.00;101802.72;5052651;28;20111;-48
2023/05/16 01:29:06;;;;;;;28.02;12.55;;;;;;;7.59;100.00;101794.38;5052231;28;20091;-47
2023/05/16 01:31:31;;;;;;;22.42;11.88;;;;;;;7.55;100.00;101806.16;5037418;28;20037;-45
2023/05/16 01:33:57;;;;;;;24.38;11.55;;;;;;;7.57;100.00;101815.00;5050202;28;20025;-47
2023/05/16 01:36:38;;;;;;;22.45;11.57;;;;;;;7.44;100.00;101799.75;5052565;28;20100;-47
2023/05/16 01:39:29;;;;;;;22.38;11.48;;;;;;;7.40;100.00;101807.69;5042056;28;20049;-45
2023/05/16 01:42:03;;;;;;;23.17;11.77;;;;;;;7.37;100.00;101807.41;5032603;28;20033;-48
2023/05/16 01:44:55;;;;;;;23.98;11.70;;;;;;;7.33;100.00;101796.91;5031119;28;20083;-45
2023/05/16 01:47:24;;;;;;;22.38;11.82;;;;;;;7.31;100.00;101799.06;5032522;28;20112;-47
2023/05/16 01:50:08;;;;;;;21.73;11.68;;;;;;;7.22;100.00;101817.16;5032373;28;20033;-46
2023/05/16 01:52:42;;;;;;;22.00;12.10;;;;;;;7.14;100.00;101821.19;5032285;28;20037;-46
2023/05/16 01:55:13;;;;;;;24.17;11.98;;;;;;;7.08;100.00;101802.16;5032318;28;20029;-48
2023/05/16 01:57:41;;;;;;;23.73;12.60;;;;;;;7.04;100.00;101815.56;5032430;28;20040;-46
2023/05/16 02:00:07;;;;;;;25.35;11.75;;;;;;;7.03;100.00;101813.94;5032106;28;20029;-47
2023/05/16 02:02:32;;;;;;;24.33;11.88;;;;;;;7.02;100.00;101813.09;5032118;28;20041;-45
2023/05/16 02:04:58;;;;;;;22.75;11.27;;;;;;;7.03;100.00;101813.94;5031997;28;20033;-44
2023/05/16 02:07:23;;;;;;;23.73;12.02;;;;;;;7.03;100.00;101817.50;5032060;28;20022;-45
2023/05/16 02:09:49;;;;;;;24.70;11.40;;;;;;;7.00;100.00;101820.75;5031938;28;20103;-48
2023/05/16 02:12:14;;;;;;;23.27;11.70;;;;;;;6.98;100.00;101813.88;5025899;28;20309;-46
2023/05/16 02:14:40;;;;;;;22.42;12.05;;;;;;;6.95;100.00;101822.63;5030849;28;20026;-47
2023/05/16 02:17:05;;;;;;;21.60;11.60;;;;;;;6.96;100.00;101827.88;5031581;28;20036;-46
2023/05/16 02:19:30;;;;;;;19.15;11.45;;;;;;;6.94;100.00;101826.50;5031674;28;20100;-46
2023/05/16 02:21:56;;;;;;;21.58;11.77;;;;;;;6.94;100.00;101826.50;5031832;28;20026;-45
2023/05/16 02:24:21;;;;;;;25.65;11.90;;;;;;;6.87;100.00;101816.50;5031584;28;20163;-46
2023/05/16 02:26:46;;;;;;;23.15;11.48;;;;;;;6.93;100.00;101824.81;5031254;28;20032;-44
2023/05/16 02:29:12;;;;;;;20.95;11.52;;;;;;;6.87;100.00;101829.44;5031629;28;20026;-50
2023/05/16 02:31:37;;;;;;;27.33;12.18;;;;;;;6.83;100.00;101831.00;5031852;28;20041;-45
2023/05/16 02:34:02;;;;;;;24.33;11.90;;;;;;;6.87;100.00;101833.00;5029936;28;20033;-45
2023/05/16 02:36:28;;;;;;;26.90;11.93;;;;;;;6.85;100.00;101826.09;5031486;28;20026;-44
2023/05/16 02:38:53;;;;;;;20.88;11.85;;;;;;;6.83;100.00;101833.75;5031342;28;20155;-46
2023/05/16 02:41:21;;;;;;;23.25;11.60;;;;;;;6.77;100.00;101840.31;5030180;28;20022;-46
2023/05/16 02:43:46;;;;;;;20.50;11.25;;;;;;;6.71;100.00;101842.16;5031670;28;20091;-46
2023/05/16 02:46:38;;;;;;;21.98;11.85;;;;;;;6.67;100.00;101841.00;5031343;28;20029;-45
2023/05/16 02:49:03;;;;;;;22.60;11.45;;;;;;;6.62;100.00;101838.19;5027334;28;20052;-45
2023/05/16 02:51:29;;;;;;;22.33;11.40;;;;;;;6.62;100.00;101846.44;5031133;28;20026;-45
2023/05/16 02:54:00;;;;;;;22.27;11.32;;;;;;;6.63;100.00;101851.66;5030958;28;20030;-46
2023/05/16 02:56:26;;;;;;;22.13;11.38;;;;;;;6.62;100.00;101841.75;5031135;28;20045;-48
2023/05/16 02:58:53;;;;;;;21.40;11.73;;;;;;;6.72;100.00;101863.88;5031161;28;20053;-45
2023/05/16 03:01:18;;;;;;;23.42;11.70;;;;;;;6.68;100.00;101853.66;5031048;28;20104;-44
2023/05/16 03:03:44;;;;;;;23.60;11.48;;;;;;;6.72;100.00;101860.31;5031151;28;20096;-48
2023/05/16 03:06:09;;;;;;;23.05;12.32;;;;;;;6.71;100.00;101853.97;5031264;28;20029;-45
2023/05/16 03:08:35;;;;;;;21.70;11.90;;;;;;;6.71;100.00;101853.97;5031221;28;20057;-44
2023/05/16 03:11:00;;;;;;;23.02;11.00;;;;;;;6.71;100.00;101864.16;5031294;28;20033;-46
2023/05/16 03:13:27;;;;;;;19.80;11.35;;;;;;;6.68;100.00;101870.16;5028277;28;20354;-46
2023/05/16 03:15:52;;;;;;;22.88;12.07;;;;;;;6.64;100.00;101858.84;5030998;28;20041;-45
2023/05/16 03:18:17;;;;;;;22.98;11.60;;;;;;;6.63;100.00;101875.59;5031052;28;20052;-45
2023/05/16 03:20:43;;;;;;;24.15;11.63;;;;;;;6.59;100.00;101874.44;5031117;28;20081;-45
2023/05/16 03:23:08;;;;;;;23.48;11.57;;;;;;;6.53;100.00;101874.38;5031063;28;20366;-46
2023/05/16 03:25:35;;;;;;;23.25;11.60;;;;;;;6.48;100.00;101868.78;5030983;28;20048;-45
2023/05/16 03:28:01;;;;;;;22.65;12.10;;;;;;;6.45;100.00;101877.56;5031112;28;20150;-45
2023/05/16 03:30:26;;;;;;;22.80;11.68;;;;;;;6.41;100.00;101873.63;5030878;28;20622;-49
2023/05/16 03:32:51;;;;;;;23.50;12.20;;;;;;;6.33;100.00;101868.56;5034213;28;20033;-48
2023/05/16 03:35:17;;;;;;;24.35;12.15;;;;;;;6.28;100.00;101869.34;5049034;28;20025;-46
2023/05/16 03:37:42;;;;;;;23.45;12.20;;;;;;;6.26;100.00;101868.75;5051820;28;20453;-48
2023/05/16 03:40:08;;;;;;;21.00;12.90;;;;;;;6.22;100.00;101873.91;5054152;28;20025;-49
2023/05/16 03:42:34;;;;;;;23.38;12.20;;;;;;;6.26;100.00;101879.75;5053941;28;20056;-49
2023/05/16 03:44:59;;;;;;;24.60;12.82;;;;;;;6.22;100.00;101879.41;5054095;28;20025;-48
2023/05/16 03:47:24;;;;;;;24.70;12.52;;;;;;;6.19;100.00;101879.09;5054459;28;20392;-49
2023/05/16 03:49:50;;;;;;;22.73;12.35;;;;;;;6.20;100.00;101883.50;5052987;28;20072;-49
2023/05/16 03:52:15;;;;;;;22.63;11.85;;;;;;;6.14;100.00;101882.59;5054133;28;20017;-45
2023/05/16 03:54:40;;;;;;;22.67;11.23;;;;;;;6.12;100.00;101892.16;5054291;28;20094;-48
2023/05/16 03:57:06;;;;;;;21.83;11.88;;;;;;;6.07;100.00;101891.00;5054041;28;20029;-44
2023/05/16 03:59:31;;;;;;;22.38;12.10;;;;;;;6.06;100.00;101896.75;5043351;28;20470;-50
2023/05/16 04:01:56;;;;;;;21.38;11.32;;;;;;;6.09;100.00;101896.25;5034379;28;20042;-49
2023/05/16 04:04:22;;;;;;;23.02;10.65;;;;;;;6.07;100.00;101893.75;5034207;28;20025;-45
2023/05/16 04:06:47;;;;;;;23.40;11.30;;;;;;;6.07;100.00;101901.16;5033921;28;20022;-47
2023/05/16 04:09:12;;;;;;;21.90;11.43;;;;;;;6.03;100.00;101902.72;5034063;28;20025;-45
2023/05/16 04:11:38;;;;;;;21.08;11.40;;;;;;;6.03;100.00;101909.06;5033966;28;20025;-45
2023/05/16 04:14:03;;;;;;;24.58;11.30;;;;;;;6.07;100.00;101907.47;5026511;28;20021;-46
2023/05/16 04:16:29;;;;;;;21.42;10.60;;;;;;;6.12;100.00;101903.16;5033909;28;20064;-45
2023/05/16 04:18:55;;;;;;;21.20;11.10;;;;;;;6.13;100.00;101908.41;5033987;28;20065;-47
2023/05/16 04:21:20;;;;;;;24.90;11.75;;;;;;;6.15;100.00;101913.63;5037904;28;20463;-46
2023/05/16 04:23:46;;;;;;;23.60;11.55;;;;;;;6.20;100.00;101911.78;5054148;28;20017;-44
2023/05/16 04:26:11;;;;;;;22.85;11.00;;;;;;;6.22;100.00;101917.06;5053934;28;20024;-47
2023/05/16 04:28:37;;;;;;;22.60;11.55;;;;;;;6.22;100.00;101920.63;5052648;28;20124;-44
2023/05/16 04:31:02;;;;;;;21.90;11.10;;;;;;;6.25;100.00;101916.53;5052264;28;20025;-46
2023/05/16 04:33:27;;;;;;;22.95;11.80;;;;;;;6.24;100.00;101923.13;5053706;28;20104;-43
2023/05/16 04:35:53;;;;;;;23.88;11.40;;;;;;;6.28;100.00;101924.28;5037513;28;20491;-46
2023/05/16 04:38:19;;;;;;;20.33;11.50;;;;;;;6.31;100.00;101928.44;5033165;28;20041;-43
2023/05/16 04:40:44;;;;;;;23.17;11.38;;;;;;;6.36;100.00;101932.13;5050440;28;20211;-46
2023/05/16 04:43:09;;;;;;;21.50;11.45;;;;;;;6.37;100.00;101939.28;5053108;28;20048;-48
2023/05/16 04:45:35;;;;;;;24.10;10.88;;;;;;;6.35;100.00;101937.88;5053152;28;20040;-45
2023/05/16 04:48:01;;;;;;;21.63;10.90;;;;;;;6.35;100.00;101932.38;5052767;28;20060;-46
2023/05/16 04:50:26;;;;;;;22.33;10.85;;;;;;;6.39;100.00;101945.38;5053416;28;20063;-47
2023/05/16 04:52:51;;;;;;;22.20;11.23;;;;;;;6.47;100.00;101943.28;5053258;28;20033;-44
2023/05/16 04:55:17;;;;;;;21.35;11.20;;;;;;;6.53;100.00;101947.75;5053374;28;20439;-45
2023/05/16 04:57:42;;;;;;;21.80;10.80;;;;;;;6.58;100.00;101947.84;5053156;28;20037;-46
2023/05/16 05:00:10;;;;;;;23.50;10.88;;;;;;;6.63;100.00;101950.66;5053540;28;20031;-45
2023/05/16 05:02:36;;;;;;;20.17;10.85;;;;;;;6.66;100.00;101952.91;5053289;28;20032;-46
2023/05/16 05:05:02;;;;;;;25.77;11.05;;;;;;;6.67;100.00;101960.09;5053186;28;20056;-47
2023/05/16 05:07:28;;;;;;;22.67;11.07;;;;;;;6.72;100.00;101954.63;5053006;28;20064;-48
2023/05/16 05:09:54;;;;;;;21.10;10.75;;;;;;;6.81;100.00;101948.69;5052999;28;20079;-47
2023/05/16 05:12:20;;;;;;;23.60;12.57;;;;;;;6.87;100.00;101953.22;5048030;28;20524;-45
2023/05/16 05:14:46;;;;;;;25.17;11.25;;;;;;;6.93;100.00;101956.88;5051129;28;20108;-46
2023/05/16 05:17:11;;;;;;;20.08;10.90;;;;;;;6.97;100.00;101956.09;5052899;28;20404;-43
2023/05/16 05:19:36;;;;;;;21.67;10.93;;;;;;;7.03;100.00;101954.25;5052602;28;20052;-44
2023/05/16 05:22:01;;;;;;;23.88;11.13;;;;;;;7.09;100.00;101953.22;5052812;28;20183;-45
2023/05/16 05:24:27;;;;;;;20.75;10.65;;;;;;;7.13;100.00;101953.53;5052732;28;20021;-46
2023/05/16 05:26:52;;;;;;;22.75;11.00;;;;;;;7.23;100.00;101955.56;5052528;28;20468;-45
2023/05/16 05:29:17;;;;;;;23.38;10.63;;;;;;;7.30;100.00;101965.31;5050998;28;20028;-45
2023/05/16 05:31:43;;;;;;;24.70;11.27;;;;;;;7.35;100.00;101964.53;5052381;28;20036;-44
2023/05/16 05:34:08;;;;;;;23.23;10.93;;;;;;;7.36;100.00;101968.16;5052373;28;20037;-45
2023/05/16 05:36:33;;;;;;;23.42;10.75;;;;;;;7.41;100.00;101969.03;5052361;28;20434;-46
2023/05/16 05:38:58;;;;;;;19.10;10.38;;;;;;;7.49;99.20;101978.75;5052238;28;20060;-47
2023/05/16 05:41:25;;;;;;;22.77;10.90;;;;;;;7.54;99.16;101969.72;5051788;28;20029;-45
2023/05/16 05:43:50;;;;;;;19.05;10.45;;;;;;;7.62;98.85;101980.28;5051847;28;20040;-45
2023/05/16 05:46:16;;;;;;;22.95;11.38;;;;;;;7.70;97.95;101973.47;5052291;28;20025;-46
2023/05/16 05:48:41;;;;;;;20.30;10.98;;;;;;;7.77;97.83;101979.59;5052062;28;20408;-44
2023/05/16 05:51:07;;;;;;;22.60;10.63;;;;;;;7.87;97.22;101979.72;5052160;28;20416;-44
2023/05/16 05:53:32;;;;;;;19.52;10.07;;;;;;;7.96;96.61;101994.69;5052216;28;20148;-43
2023/05/16 05:55:57;;;;;;;21.98;10.82;;;;;;;8.04;94.84;101984.28;5052149;28;20025;-44
2023/05/16 05:58:22;;;;;;;19.23;10.60;;;;;;;8.13;95.02;101990.97;5051935;28;20273;-44
2023/05/16 06:00:48;;;;;;;23.77;10.98;;;;;;;8.19;93.78;101995.47;5050830;28;20413;-45
2023/05/16 06:03:13;;;;;;;19.90;10.50;;;;;;;8.26;93.03;101993.31;5051939;28;20481;-45
2023/05/16 06:05:39;;;;;;;23.83;10.45;;;;;;;8.31;93.73;101992.53;5051975;28;20021;-44
2023/05/16 06:08:04;;;;;;;21.55;11.05;;;;;;;8.35;92.83;102001.09;5051545;28;20056;-44
2023/05/16 06:10:30;;;;;;;21.83;10.98;;;;;;;8.43;93.29;102004.22;5051855;28;20487;-44
2023/05/16 06:12:55;;;;;;;24.75;11.15;;;;;;;8.53;92.12;102003.50;5043708;28;20111;-44
2023/05/16 06:15:20;;;;;;;21.73;10.57;;;;;;;8.56;91.69;102008.50;5037698;28;20045;-44
2023/05/16 06:17:46;;;;;;;21.45;11.05;;;;;;;8.62;91.43;102003.00;5031259;28;20060;-46
2023/05/16 06:20:11;;;;;;;20.98;10.77;;;;;;;8.73;91.73;102008.34;5030802;28;20571;-43
2023/05/16 06:22:36;;;;;;;22.05;11.20;;;;;;;8.76;90.39;102015.25;5031843;28;20052;-45
2023/05/16 06:25:02;;;;;;;25.05;10.88;;;;;;;8.78;89.83;102026.03;5030621;28;20039;-43
2023/05/16 06:27:27;;;;;;;21.38;9.95;;;;;;;8.73;89.45;102022.16;5031588;28;20037;-44
2023/05/16 06:29:53;;;;;;;20.77;10.18;;;;;;;8.68;89.76;102019.34;5031404;28;20060;-45
2023/05/16 06:32:18;;;;;;;21.17;11.10;;;;;;;8.55;89.89;102020.63;5031633;28;20420;-43
2023/05/16 06:34:43;;;;;;;22.10;11.07;;;;;;;8.55;90.75;102015.09;5031472;28;20060;-44
2023/05/16 06:37:08;;;;;;;21.98;10.63;;;;;;;8.61;90.08;102020.63;5031440;28;20033;-45
2023/05/16 06:39:34;;;;;;;21.98;10.90;;;;;;;8.73;89.96;102022.16;5031093;28;20144;-46
2023/05/16 06:41:59;;;;;;;19.85;10.43;;;;;;;8.80;89.80;102026.59;5031364;28;20067;-46
2023/05/16 06:44:25;;;;;;;21.45;10.45;;;;;;;8.88;88.31;102024.16;5031028;28;20021;-44
2023/05/16 06:46:50;;;;;;;20.27;10.57;;;;;;;8.96;87.32;102038.56;5031511;28;20108;-43
2023/05/16 06:49:15;;;;;;;18.70;10.88;;;;;;;9.04;87.45;102027.03;5029898;28;20112;-44
2023/05/16 06:51:41;;;;;;;20.05;10.77;;;;;;;9.17;85.77;102032.06;5031262;28;20026;-43
2023/05/16 06:54:06;;;;;;;22.13;10.82;;;;;;;9.30;85.88;102027.16;5031226;28;20035;-47
2023/05/16 06:56:31;;;;;;;19.83;10.40;;;;;;;9.38;83.43;102012.03;5031237;28;20116;-44
2023/05/16 06:58:57;;;;;;;20.08;10.20;;;;;;;9.44;84.61;102021.97;5031038;28;20037;-44
2023/05/16 07:01:22;;;;;;;19.77;10.55;;;;;;;9.43;84.03;102006.50;5031156;28;20025;-47
2023/05/16 07:03:47;;;;;;;20.40;10.02;;;;;;;9.48;82.85;102020.34;5031020;28;20022;-44
2023/05/16 07:06:12;;;;;;;20.15;10.40;;;;;;;9.57;81.83;102021.50;5031388;28;20028;-43
2023/05/16 07:08:38;;;;;;;19.10;10.32;;;;;;;9.67;81.52;102023.44;5030871;28;20021;-45
2023/05/16 07:11:03;;;;;;;18.38;10.20;;;;;;;9.76;81.41;102024.59;5047507;28;20036;-44
2023/05/16 07:13:28;;;;;;;18.45;9.90;;;;;;;9.77;79.05;102028.19;5050741;28;20024;-44
2023/05/16 07:15:54;;;;;;;19.55;10.48;;;;;;;9.87;80.04;102025.44;5051032;28;20024;-48
2023/05/16 07:18:19;;;;;;;20.50;10.05;;;;;;;9.97;78.53;102027.41;5044574;28;20537;-45
2023/05/16 07:20:44;;;;;;;18.95;9.50;;;;;;;9.98;77.74;102034.59;5029209;28;20060;-44
2023/05/16 07:23:10;;;;;;;18.95;9.50;;;;;;;9.93;75.91;102029.88;5029084;28;20140;-44
2023/05/16 07:25:35;;;;;;;17.75;9.43;;;;;;;9.92;77.17;102035.69;5028912;28;20571;-44
2023/05/16 07:28:01;;;;;;;19.42;9.65;;;;;;;10.02;77.05;102035.69;5028863;28;20108;-45
2023/05/16 07:30:26;;;;;;;16.63;9.50;;;;;;;10.14;74.82;102043.75;5028743;28;20397;-45
2023/05/16 07:32:51;;;;;;;18.92;9.32;;;;;;;10.17;73.82;102032.13;5028727;28;20481;-46
2023/05/16 07:35:17;;;;;;;18.88;9.32;;;;;;;10.25;72.86;102042.66;5028899;28;20033;-43
2023/05/16 07:37:42;;;;;;;17.50;9.93;;;;;;;10.28;73.53;102047.63;5028602;28;20485;-44
2023/05/16 07:40:09;;;;;;;18.17;9.93;;;;;;;10.26;74.79;102047.09;5028771;28;20041;-51
2023/05/16 07:42:34;;;;;;;19.88;10.60;;;;;;;10.27;75.13;102045.97;5028932;28;20041;-57
2023/05/16 07:45:00;;;;;;;18.02;9.82;;;;;;;10.26;74.68;102024.94;5028640;28;20056;-54
2023/05/16 07:47:26;;;;;;;21.45;10.20;;;;;;;10.46;75.69;102031.63;5028873;28;20037;-55
2023/05/16 07:49:51;;;;;;;19.35;9.63;;;;;;;10.64;74.05;102034.94;5028786;28;20033;-55
2023/05/16 07:52:17;;;;;;;19.52;9.77;;;;;;;10.84;72.28;102042.44;5028509;28;20136;-55
2023/05/16 07:54:42;;;;;;;18.55;10.18;;;;;;;10.83;68.76;102052.66;5029101;28;20032;-56
2023/05/16 07:57:07;;;;;;;17.23;9.50;;;;;;;11.00;70.74;102038.53;5028687;28;20412;-55
2023/05/16 07:59:33;;;;;;;17.73;9.35;;;;;;;11.03;70.87;102039.88;5028762;28;20029;-55
2023/05/16 08:01:58;;;;;;;17.77;9.60;;;;;;;11.19;69.49;102037.94;5028822;28;20464;-55
2023/05/16 08:04:24;;;;;;;16.95;9.60;;;;;;;11.42;69.40;102035.66;5026792;28;20022;-55
2023/05/16 08:06:49;;;;;;;16.73;9.10;;;;;;;11.45;69.05;102044.22;5028610;28;20341;-56
2023/05/16 08:09:14;;;;;;;17.17;9.32;;;;;;;11.26;69.10;102044.00;5028612;28;20037;-55
2023/05/16 08:11:39;;;;;;;16.88;9.70;;;;;;;11.07;69.46;102039.06;5028614;28;20045;-56
2023/05/16 08:14:05;;;;;;;18.73;9.05;;;;;;;10.92;69.08;102058.47;5028309;28;20045;-56
2023/05/16 08:16:30;;;;;;;18.35;9.48;;;;;;;10.96;68.47;102048.47;5047771;28;20094;-56
2023/05/16 08:18:56;;;;;;;18.00;9.63;;;;;;;11.17;69.83;102043.75;5048319;28;20060;-55
2023/05/16 08:21:21;;;;;;;15.13;9.20;;;;;;;11.37;68.16;102036.50;5048479;28;20098;-57
2023/05/16 08:23:46;;;;;;;16.90;9.52;;;;;;;11.56;68.04;102047.78;5049868;28;20043;-57
2023/05/16 08:26:11;;;;;;;16.52;9.50;;;;;;;11.79;67.67;102035.19;5052012;28;20032;-57
2023/05/16 08:28:37;;;;;;;17.17;9.60;;;;;;;12.06;62.99;102045.03;5052133;28;20113;-56
2023/05/16 08:31:02;;;;;;;15.27;9.43;;;;;;;12.13;64.20;102047.50;5052037;28;20435;-57
2023/05/16 08:33:27;;;;;;;15.23;9.30;;;;;;;11.92;65.50;102042.06;5051963;28;20056;-59
2023/05/16 08:35:53;;;;;;;18.27;9.93;;;;;;;11.72;66.57;102051.31;5051874;28;20519;-56
2023/05/16 08:38:18;;;;;;;18.85;9.65;;;;;;;11.48;68.77;102048.38;5051570;28;20080;-57
2023/05/16 08:40:44;;;;;;;16.52;9.60;;;;;;;11.32;70.13;102045.66;5051876;28;20423;-57
2023/05/16 08:43:10;;;;;;;17.30;9.30;;;;;;;11.22;70.64;102049.25;5051487;28;20477;-57
2023/05/16 08:45:36;;;;;;;17.88;9.65;;;;;;;11.22;70.70;102042.91;5052033;28;20507;-56
2023/05/16 08:48:03;;;;;;;15.85;9.60;;;;;;;11.34;68.81;102042.59;5051576;28;20033;-57
2023/05/16 08:50:30;;;;;;;16.45;9.63;;;;;;;11.47;68.67;102033.69;5051751;28;20107;-57
2023/05/16 08:52:56;;;;;;;16.27;9.40;;;;;;;11.77;67.64;102029.09;5051499;28;20033;-55
2023/05/16 08:55:21;;;;;;;17.40;9.25;;;;;;;12.03;66.10;102034.53;5051626;28;20079;-57
2023/05/16 08:57:49;;;;;;;18.23;9.50;;;;;;;12.13;63.89;102028.94;5051625;28;20048;-56
2023/05/16 09:00:18;;;;;;;16.35;9.30;;;;;;;12.35;63.11;102029.59;5051686;28;20075;-57
2023/05/16 09:02:43;;;;;;;16.33;9.60;;;;;;;12.61;61.15;102035.78;5049753;28;20025;-57
2023/05/16 09:05:13;;;;;;;18.73;9.20;;;;;;;12.84;61.05;102034.19;5051185;28;20473;-57
2023/05/16 09:07:40;;;;;;;17.35;9.10;;;;;;;12.78;60.22;102033.41;5051199;28;20483;-57
2023/05/16 09:10:06;;;;;;;15.82;8.95;;;;;;;12.66;60.41;102040.47;5050787;28;20495;-57
2023/05/16 09:12:32;;;;;;;17.08;9.57;;;;;;;12.31;59.51;102035.72;5051418;28;20052;-57
2023/05/16 09:15:00;;;;;;;15.80;9.20;;;;;;;12.12;60.14;102038.38;5051444;28;20106;-57
2023/05/16 09:17:26;;;;;;;15.45;8.90;;;;;;;12.11;61.00;102039.47;5051108;28;20037;-56
2023/05/16 09:19:55;;;;;;;14.20;8.80;;;;;;;12.15;60.09;102042.50;5051022;28;20101;-56
2023/05/16 09:22:22;;;;;;;16.13;9.30;;;;;;;12.26;61.04;102034.94;5050966;28;20025;-57
2023/05/16 09:24:48;;;;;;;13.55;9.10;;;;;;;12.51;59.10;102028.38;5050547;28;20459;-56
2023/05/16 09:27:14;;;;;;;13.25;9.05;;;;;;;12.78;58.52;102038.13;5048961;28;20071;-57
2023/05/16 09:29:41;;;;;;;16.40;8.90;;;;;;;13.07;58.85;102034.50;5050722;28;20037;-57
2023/05/16 09:32:13;;;;;;;15.27;8.75;;;;;;;13.21;58.28;102040.19;5050623;28;20119;-56
2023/05/16 09:34:47;;;;;;;17.25;9.00;;;;;;;13.35;58.78;102023.63;5037395;28;20029;-55
2023/05/16 09:37:13;;;;;;;15.18;9.40;;;;;;;13.54;58.04;102023.72;5030756;28;20047;-55
2023/05/16 09:39:46;;;;;;;18.35;9.13;;;;;;;13.65;57.76;102025.22;5030393;28;20545;-55
2023/05/16 09:42:12;;;;;;;18.75;9.32;;;;;;;13.68;58.41;102032.16;5030834;28;20492;-55
2023/05/16 09:44:38;;;;;;;16.20;9.50;;;;;;;13.49;57.65;102032.09;5030528;28;20029;-56
2023/05/16 09:47:04;;;;;;;16.50;8.95;;;;;;;13.08;58.19;102033.38;5030651;28;20401;-56
2023/05/16 09:49:29;;;;;;;14.27;8.75;;;;;;;12.90;59.50;102034.94;5030535;28;20037;-56
2023/05/16 09:51:55;;;;;;;18.27;9.55;;;;;;;12.74;60.52;102043.44;5030483;28;20043;-54
2023/05/16 09:54:31;;;;;;;13.20;9.13;;;;;;;12.65;60.56;102045.16;5031043;28;20444;-55
2023/05/16 09:56:57;;;;;;;17.35;8.90;;;;;;;12.43;61.69;102037.31;5030476;28;20026;-56
2023/05/16 09:59:22;;;;;;;17.02;8.93;;;;;;;12.49;60.03;102036.16;5030420;28;20106;-55
2023/05/16 10:01:50;;;;;;;15.93;8.45;;;;;;;12.59;60.46;102035.25;5028824;28;20041;-55
2023/05/16 10:04:15;;;;;;;17.15;8.63;;;;;;;12.82;59.25;102032.81;5028425;28;20037;-56
2023/05/16 10:06:41;;;;;;;18.70;9.10;;;;;;;13.16;58.47;102034.69;5030264;28;20033;-55
2023/05/16 10:09:11;;;;;;;14.20;8.25;;;;;;;13.47;57.39;102037.13;5029982;28;20113;-56
2023/05/16 10:11:39;;;;;;;16.05;8.80;;;;;;;13.83;56.32;102020.81;5029850;28;20120;-55
2023/05/16 10:14:05;;;;;;;15.13;9.27;;;;;;;14.15;54.94;102026.75;5030038;28;20029;-56
2023/05/16 10:16:31;;;;;;;14.20;8.30;;;;;;;14.28;51.62;102028.78;5030075;28;20427;-56
2023/05/16 10:18:59;;;;;;;13.13;8.30;;;;;;;14.22;52.03;102018.03;5029953;28;20483;-56
2023/05/16 10:21:26;;;;;;;14.27;8.45;;;;;;;14.39;52.10;102028.63;5029932;28;20040;-56
2023/05/16 10:23:55;;;;;;;17.35;8.60;;;;;;;14.46;52.13;102021.50;5036433;28;20032;-55
2023/05/16 10:26:22;;;;;;;14.88;8.10;;;;;;;14.43;51.54;102032.44;5040505;28;20029;-56
2023/05/16 10:28:49;;;;;;;14.20;7.85;;;;;;;14.29;50.83;102029.59;5038761;28;20468;-56
2023/05/16 10:31:15;;;;;;;13.38;7.75;;;;;;;14.06;50.67;102031.34;5047360;28;20396;-56
2023/05/16 10:33:41;;;;;;;15.60;7.93;;;;;;;14.01;50.05;102024.75;5049788;28;20025;-56
2023/05/16 10:36:10;;;;;;;14.80;8.20;;;;;;;14.29;50.36;102026.81;5049718;28;20033;-56
2023/05/16 10:38:37;;;;;;;14.27;8.50;;;;;;;14.54;49.75;102027.53;5049819;28;20052;-56
2023/05/16 10:41:03;;;;;;;16.60;8.80;;;;;;;14.51;47.09;102026.16;5049649;28;20044;-56
2023/05/16 10:43:29;;;;;;;11.75;8.40;;;;;;;14.24;47.83;102026.91;5049737;28;20040;-56
2023/05/16 10:45:56;;;;;;;14.60;8.80;;;;;;;14.01;48.24;102019.19;5049157;28;20025;-55
2023/05/16 10:48:48;;;;;;;14.23;8.70;;;;;;;13.95;50.18;102023.13;5049705;28;20040;-57
2023/05/16 10:51:22;;;;;;;14.02;8.20;;;;;;;13.72;50.32;102031.25;5045578;28;20040;-57
2023/05/16 10:53:52;;;;;;;16.63;8.02;;;;;;;13.79;51.07;102030.06;5049063;28;20083;-55
2023/05/16 10:56:25;;;;;;;15.57;8.20;;;;;;;14.02;51.59;102026.41;5042237;28;20061;-56
2023/05/16 10:58:54;;;;;;;14.40;8.57;;;;;;;13.94;51.13;102015.91;5031344;28;20025;-57
2023/05/16 11:01:22;;;;;;;17.73;8.68;;;;;;;13.95;51.61;102025.91;5029850;28;20033;-57
2023/05/16 11:04:03;;;;;;;15.73;8.40;;;;;;;13.96;49.41;102030.38;5031287;28;20504;-57
2023/05/16 11:06:41;;;;;;;14.88;8.20;;;;;;;14.00;49.10;102025.03;5031225;28;20033;-57
2023/05/16 11:09:18;;;;;;;14.15;8.40;;;;;;;14.31;48.39;102021.78;5031172;28;20087;-57
2023/05/16 11:11:59;;;;;;;14.10;7.97;;;;;;;14.23;47.32;102033.59;5031318;28;20032;-57
2023/05/16 11:14:33;;;;;;;14.25;8.68;;;;;;;14.09;49.94;102031.56;5031181;28;20473;-55